createdAt,value
2023-04-08T00:01:58.725Z,17.60
2023-04-08T00:04:27.957Z,14.40
2023-04-08T00:06:56.984Z,16.03
2023-04-08T00:09:25.480Z,15.87
2023-04-08T00:11:56.815Z,18.97
2023-04-08T00:14:25.474Z,17.30
2023-04-08T00:16:54.302Z,19.07
2023-04-08T00:19:22.974Z,17.63
2023-04-08T00:21:54.744Z,16.97
2023-04-08T00:24:23.897Z,18.80
2023-04-08T00:26:54.273Z,19.27
2023-04-08T00:29:23.346Z,20.00
2023-04-08T00:31:52.822Z,19.13
2023-04-08T00:34:21.661Z,19.53
2023-04-08T00:36:50.021Z,17.83
2023-04-08T00:39:18.409Z,18.43
2023-04-08T00:41:47.700Z,17.20
2023-04-08T00:44:17.519Z,18.17
2023-04-08T00:46:46.507Z,23.50
2023-04-08T00:49:14.883Z,19.00
2023-04-08T00:51:43.231Z,18.43
2023-04-08T00:54:11.518Z,19.30
2023-04-08T00:56:40.565Z,19.87
2023-04-08T00:59:08.925Z,18.90
2023-04-08T01:01:52.023Z,21.53
2023-04-08T01:04:30.854Z,19.37
2023-04-08T01:07:09.087Z,21.90
2023-04-08T01:09:41.164Z,19.00
2023-04-08T01:12:14.081Z,21.20
2023-04-08T01:14:47.229Z,21.20
2023-04-08T01:17:19.733Z,21.47
2023-04-08T01:19:49.767Z,23.27
2023-04-08T01:22:36.244Z,23.07
2023-04-08T01:25:10.445Z,24.63
2023-04-08T01:27:40.838Z,24.47
2023-04-08T01:30:11.032Z,25.90
2023-04-08T01:32:42.453Z,21.93
2023-04-08T01:35:11.836Z,24.30
2023-04-08T01:37:41.051Z,23.73
2023-04-08T01:40:12.499Z,23.80
2023-04-08T01:42:43.558Z,26.57
2023-04-08T01:45:13.978Z,25.93
2023-04-08T01:47:43.642Z,25.87
2023-04-08T01:50:13.960Z,26.13
2023-04-08T01:52:45.059Z,26.03
2023-04-08T01:55:13.629Z,23.77
2023-04-08T01:57:48.834Z,26.83
2023-04-08T02:00:23.526Z,27.13
2023-04-08T02:02:53.459Z,27.17
2023-04-08T02:05:22.488Z,28.13
2023-04-08T02:07:52.074Z,27.33
2023-04-08T02:10:21.119Z,30.30
2023-04-08T02:12:51.082Z,28.03
2023-04-08T02:15:19.958Z,28.90
2023-04-08T02:17:52.581Z,27.37
2023-04-08T02:20:25.983Z,30.73
2023-04-08T02:23:02.376Z,28.67
2023-04-08T02:25:33.293Z,29.17
2023-04-08T02:28:06.142Z,28.73
2023-04-08T02:30:37.248Z,28.93
2023-04-08T02:33:06.917Z,25.37
2023-04-08T02:35:36.834Z,30.50
2023-04-08T02:38:05.474Z,29.33
2023-04-08T02:40:37.529Z,26.57
2023-04-08T02:43:07.497Z,32.37
2023-04-08T02:45:42.070Z,30.50
2023-04-08T02:48:10.886Z,32.13
2023-04-08T02:50:39.954Z,33.67
2023-04-08T02:53:09.555Z,32.90
2023-04-08T02:55:38.015Z,30.80
2023-04-08T02:58:07.780Z,35.43
2023-04-08T03:00:36.281Z,31.37
2023-04-08T03:03:04.931Z,32.00
2023-04-08T03:05:33.690Z,33.90
2023-04-08T03:08:02.098Z,34.83
2023-04-08T03:10:30.548Z,38.30
2023-04-08T03:12:58.787Z,34.50
2023-04-08T03:15:28.497Z,38.00
2023-04-08T03:17:57.131Z,36.93
2023-04-08T03:20:25.966Z,36.37
2023-04-08T03:22:54.411Z,38.50
2023-04-08T03:25:22.948Z,34.77
2023-04-08T03:27:51.313Z,41.43
2023-04-08T03:30:19.848Z,36.43
2023-04-08T03:32:49.959Z,38.00
2023-04-08T03:35:18.518Z,39.50
2023-04-08T03:37:47.139Z,39.93
2023-04-08T03:40:15.597Z,36.17
2023-04-08T03:42:44.370Z,41.77
2023-04-08T03:45:12.872Z,39.00
2023-04-08T03:47:42.256Z,35.60
2023-04-08T03:50:13.022Z,40.77
2023-04-08T03:52:41.543Z,35.73
2023-04-08T03:55:10.669Z,43.23
2023-04-08T03:57:40.849Z,41.03
2023-04-08T04:00:11.240Z,39.20
2023-04-08T04:02:39.828Z,37.60
2023-04-08T04:05:09.660Z,37.47
2023-04-08T04:07:39.274Z,41.07
2023-04-08T04:10:10.474Z,42.33
2023-04-08T04:12:38.784Z,38.63
2023-04-08T04:15:08.672Z,39.70
2023-04-08T04:17:37.121Z,36.70
2023-04-08T04:20:06.760Z,37.10
2023-04-08T04:22:35.169Z,40.13
2023-04-08T04:25:05.269Z,39.13
2023-04-08T04:27:33.589Z,39.73
2023-04-08T04:30:02.340Z,43.33
2023-04-08T04:32:30.785Z,38.43
2023-04-08T04:34:59.251Z,39.70
2023-04-08T04:37:28.430Z,47.60
2023-04-08T04:39:57.487Z,39.73
2023-04-08T04:42:27.563Z,47.20
2023-04-08T04:44:56.177Z,40.33
2023-04-08T04:47:25.701Z,39.27
2023-04-08T04:49:54.029Z,43.43
2023-04-08T04:52:22.947Z,44.30
2023-04-08T04:54:51.313Z,47.17
2023-04-08T04:57:19.955Z,41.87
2023-04-08T04:59:49.880Z,43.43
2023-04-08T05:02:18.613Z,39.87
2023-04-08T05:04:47.158Z,42.80
2023-04-08T05:07:15.459Z,42.43
2023-04-08T05:09:43.703Z,40.73
2023-04-08T05:12:12.628Z,40.90
2023-04-08T05:14:42.264Z,42.30
2023-04-08T05:17:11.941Z,45.90
2023-04-08T05:19:40.243Z,46.83
2023-04-08T05:22:08.641Z,46.37
2023-04-08T05:24:37.321Z,45.17
2023-04-08T05:27:05.787Z,45.20
2023-04-08T05:29:34.121Z,45.37
2023-04-08T05:32:02.588Z,42.37
2023-04-08T05:34:33.355Z,47.20
2023-04-08T05:37:02.274Z,44.47
2023-04-08T05:39:30.665Z,45.23
2023-04-08T05:41:58.928Z,44.03
2023-04-08T05:44:27.824Z,47.73
2023-04-08T05:46:57.850Z,43.93
2023-04-08T05:49:27.369Z,42.93
2023-04-08T05:51:57.354Z,44.90
2023-04-08T05:54:26.410Z,42.63
2023-04-08T05:56:54.950Z,45.67
2023-04-08T05:59:23.507Z,41.17
2023-04-08T06:01:52.631Z,42.63
2023-04-08T06:04:21.409Z,44.13
2023-04-08T06:06:49.994Z,43.70
2023-04-08T06:09:19.987Z,39.53
2023-04-08T06:11:49.811Z,37.90
2023-04-08T06:14:18.206Z,38.03
2023-04-08T06:16:46.561Z,37.83
2023-04-08T06:19:14.822Z,35.07
2023-04-08T06:21:43.487Z,36.43
2023-04-08T06:24:11.959Z,33.60
2023-04-08T06:26:41.681Z,35.67
2023-04-08T06:29:09.996Z,30.43
2023-04-08T06:31:38.360Z,32.33
2023-04-08T06:34:06.794Z,31.83
2023-04-08T06:36:35.092Z,32.37
2023-04-08T06:39:03.918Z,29.50
2023-04-08T06:41:32.259Z,28.67
2023-04-08T06:44:01.925Z,29.97
2023-04-08T06:46:30.457Z,33.13
2023-04-08T06:48:58.805Z,29.40
2023-04-08T06:51:28.073Z,29.33
2023-04-08T06:53:56.399Z,30.97
2023-04-08T06:56:26.338Z,27.63
2023-04-08T06:58:54.929Z,29.90
2023-04-08T07:01:26.030Z,26.60
2023-04-08T07:03:55.025Z,27.23
2023-04-08T07:06:23.717Z,28.33
2023-04-08T07:08:52.453Z,26.30
2023-04-08T07:11:21.071Z,29.17
2023-04-08T07:13:49.914Z,27.33
2023-04-08T07:16:18.567Z,24.57
2023-04-08T07:18:48.389Z,27.20
2023-04-08T07:21:18.183Z,22.63
2023-04-08T07:23:47.067Z,24.40
2023-04-08T07:26:15.635Z,24.77
2023-04-08T07:28:44.383Z,22.37
2023-04-08T07:31:14.803Z,23.33
2023-04-08T07:33:43.194Z,23.17
2023-04-08T07:36:15.317Z,24.63
2023-04-08T07:38:43.646Z,23.73
2023-04-08T07:41:11.929Z,22.97
2023-04-08T07:43:40.400Z,19.70
2023-04-08T07:46:09.932Z,23.97
2023-04-08T07:48:38.727Z,23.20
2023-04-08T07:51:11.554Z,24.70
2023-04-08T07:53:41.870Z,21.33
2023-04-08T07:56:15.095Z,22.27
2023-04-08T07:58:44.008Z,22.43
2023-04-08T08:01:20.173Z,21.50
2023-04-08T08:03:50.092Z,20.50
2023-04-08T08:06:20.058Z,19.93
2023-04-08T08:08:49.979Z,22.10
2023-04-08T08:11:18.520Z,21.87
2023-04-08T08:13:46.956Z,22.70
2023-04-08T08:16:15.345Z,20.43
2023-04-08T08:18:43.991Z,19.47
2023-04-08T08:21:12.266Z,20.30
2023-04-08T08:23:40.582Z,18.87
2023-04-08T08:26:11.803Z,20.13
2023-04-08T08:28:40.721Z,20.00
2023-04-08T08:31:09.115Z,18.13
2023-04-08T08:33:37.482Z,18.93
2023-04-08T08:36:07.114Z,17.00
2023-04-08T08:38:35.458Z,18.20
2023-04-08T08:41:04.689Z,18.63
2023-04-08T08:43:34.846Z,17.87
2023-04-08T08:46:03.754Z,17.50
2023-04-08T08:48:33.182Z,17.87
2023-04-08T08:51:01.954Z,16.27
2023-04-08T08:53:35.090Z,15.90
2023-04-08T08:58:37.476Z,17.20
2023-04-08T09:01:32.461Z,16.37
2023-04-08T09:04:14.499Z,15.30
2023-04-08T09:06:43.707Z,15.03
2023-04-08T09:09:12.630Z,15.97
2023-04-08T09:11:42.273Z,15.17
2023-04-08T09:14:23.616Z,15.60
2023-04-08T09:16:55.235Z,13.23
2023-04-08T09:19:23.601Z,14.37
2023-04-08T09:22:08.059Z,14.20
2023-04-08T09:24:37.357Z,13.57
2023-04-08T09:27:06.723Z,14.90
2023-04-08T09:29:39.662Z,15.37
2023-04-08T09:32:08.455Z,16.27
2023-04-08T09:34:36.870Z,14.40
2023-04-08T09:37:05.651Z,15.30
2023-04-08T09:39:34.137Z,14.63
2023-04-08T09:42:06.855Z,16.07
2023-04-08T09:44:39.492Z,15.97
2023-04-08T09:47:14.405Z,16.03
2023-04-08T09:49:51.375Z,18.30
2023-04-08T09:52:32.345Z,20.07
2023-04-08T09:55:05.234Z,18.37
2023-04-08T09:57:43.348Z,17.97
2023-04-08T10:00:16.222Z,19.30
2023-04-08T10:02:57.339Z,23.20
2023-04-08T10:05:27.542Z,19.67
2023-04-08T10:07:58.265Z,19.57
2023-04-08T10:10:32.913Z,21.63
2023-04-08T10:13:01.493Z,20.50
2023-04-08T10:15:33.553Z,24.33
2023-04-08T10:18:38.317Z,21.07
2023-04-08T10:21:10.011Z,20.60
2023-04-08T10:23:59.855Z,22.30
2023-04-08T10:26:41.385Z,23.20
2023-04-08T10:29:33.859Z,21.60
2023-04-08T10:32:03.757Z,23.60
2023-04-08T10:34:41.462Z,23.60
2023-04-08T10:37:11.107Z,25.93
2023-04-08T10:39:39.795Z,25.03
2023-04-08T10:42:13.272Z,25.80
2023-04-08T10:44:47.401Z,32.23
2023-04-08T10:47:17.709Z,27.03
2023-04-08T10:49:46.122Z,30.43
2023-04-08T10:52:15.869Z,31.70
2023-04-08T10:54:49.856Z,27.97
2023-04-08T10:57:26.276Z,25.77
2023-04-08T10:59:55.129Z,26.40
2023-04-08T11:02:34.066Z,24.50
2023-04-08T11:05:02.565Z,25.97
2023-04-08T11:07:31.321Z,28.30
2023-04-08T11:10:04.425Z,25.47
2023-04-08T11:12:34.031Z,28.73
2023-04-08T11:15:04.202Z,32.27
2023-04-08T11:17:36.447Z,30.70
2023-04-08T11:20:07.948Z,30.93
2023-04-08T11:22:40.318Z,30.40
2023-04-08T11:25:10.869Z,32.37
2023-04-08T11:27:40.492Z,34.27
2023-04-08T11:30:11.833Z,32.73
2023-04-08T11:32:42.041Z,31.73
2023-04-08T11:35:11.499Z,33.80
2023-04-08T11:37:40.610Z,31.10
2023-04-08T11:40:11.578Z,34.50
2023-04-08T11:42:40.769Z,30.70
2023-04-08T11:45:13.210Z,33.80
2023-04-08T11:47:43.215Z,36.53
2023-04-08T11:50:12.408Z,32.30
2023-04-08T11:52:45.689Z,29.83
2023-04-08T11:55:23.988Z,33.40
2023-04-08T11:57:53.078Z,33.70
2023-04-08T12:00:22.715Z,27.67
2023-04-08T12:02:53.571Z,31.73
2023-04-08T12:05:22.587Z,33.13
2023-04-08T12:07:51.080Z,27.50
2023-04-08T12:10:20.029Z,30.00
2023-04-08T12:12:48.274Z,29.60
2023-04-08T12:15:16.639Z,31.63
2023-04-08T12:17:45.388Z,29.83
2023-04-08T12:20:17.116Z,33.03
2023-04-08T12:22:45.561Z,28.83
2023-04-08T12:25:13.865Z,27.30
2023-04-08T12:27:42.266Z,26.07
2023-04-08T12:30:13.148Z,27.67
2023-04-08T12:32:42.822Z,26.43
2023-04-08T12:35:11.152Z,26.73
2023-04-08T12:37:41.181Z,27.03
2023-04-08T12:40:11.205Z,31.50
2023-04-08T12:42:39.645Z,29.27
2023-04-08T12:45:09.497Z,29.30
2023-04-08T12:47:37.892Z,33.87
2023-04-08T12:50:09.837Z,30.83
2023-04-08T12:52:38.392Z,33.87
2023-04-08T12:55:09.717Z,33.37
2023-04-08T12:57:38.840Z,33.27
2023-04-08T13:00:11.313Z,37.13
2023-04-08T13:02:40.641Z,35.93
2023-04-08T13:05:09.848Z,35.47
2023-04-08T13:07:38.187Z,38.77
2023-04-08T13:10:09.857Z,41.63
2023-04-08T13:12:40.434Z,42.90
2023-04-08T13:15:10.784Z,45.23
2023-04-08T13:17:39.149Z,49.67
2023-04-08T13:20:11.036Z,47.90
2023-04-08T13:22:41.386Z,45.83
2023-04-08T13:25:12.989Z,50.67
2023-04-08T13:27:41.386Z,47.90
2023-04-08T13:30:12.083Z,46.70
2023-04-08T13:32:40.405Z,46.30
2023-04-08T13:35:10.046Z,45.73
2023-04-08T13:37:38.786Z,47.57
2023-04-08T13:40:09.014Z,56.60
2023-04-08T13:42:39.340Z,44.70
2023-04-08T13:45:09.216Z,48.20
2023-04-08T13:47:38.744Z,46.10
2023-04-08T13:50:11.321Z,42.67
2023-04-08T13:52:39.809Z,44.23
2023-04-08T13:55:09.288Z,47.57
2023-04-08T13:57:39.223Z,49.63
2023-04-08T14:00:10.259Z,50.90
2023-04-08T14:02:39.081Z,48.23
2023-04-08T14:05:10.738Z,51.00
2023-04-08T14:07:39.551Z,53.90
2023-04-08T14:10:10.124Z,48.67
2023-04-08T14:12:40.147Z,50.43
2023-04-08T14:15:10.330Z,50.97
2023-04-08T14:17:39.048Z,51.83
2023-04-08T14:20:08.941Z,53.67
2023-04-08T14:22:37.961Z,54.53
2023-04-08T14:25:07.430Z,59.30
2023-04-08T14:27:35.753Z,59.57
2023-04-08T14:30:06.992Z,64.03
2023-04-08T14:32:35.334Z,65.40
2023-04-08T14:35:04.538Z,60.37
2023-04-08T14:37:34.347Z,60.43
2023-04-08T14:40:02.773Z,60.03
2023-04-08T14:42:31.359Z,61.70
2023-04-08T14:44:59.758Z,59.80
2023-04-08T14:47:30.880Z,59.73
2023-04-08T14:49:59.293Z,61.70
2023-04-08T14:52:28.003Z,58.53
2023-04-08T14:54:56.545Z,56.90
2023-04-08T14:57:25.247Z,61.40
2023-04-08T14:59:54.321Z,58.07
2023-04-08T15:02:23.764Z,56.67
2023-04-08T15:04:53.836Z,54.53
2023-04-08T15:07:22.954Z,54.03
2023-04-08T15:09:51.742Z,52.30
2023-04-08T15:12:20.205Z,54.97
2023-04-08T15:14:48.994Z,55.33
2023-04-08T15:17:17.366Z,54.83
2023-04-08T15:19:46.317Z,54.58
2023-04-08T15:22:16.122Z,51.90
2023-04-08T15:24:47.504Z,51.47
2023-04-08T15:27:16.359Z,53.83
2023-04-08T15:29:44.997Z,49.75
2023-04-08T15:32:13.421Z,51.50
2023-04-08T15:34:42.313Z,49.85
2023-04-08T15:37:15.110Z,50.13
2023-04-08T15:39:43.911Z,52.17
2023-04-08T15:42:12.528Z,50.72
2023-04-08T15:44:41.378Z,51.13
2023-04-08T15:47:09.876Z,52.33
2023-04-08T15:49:38.611Z,51.40
2023-04-08T15:52:07.212Z,53.13
2023-04-08T15:54:37.019Z,52.17
2023-04-08T15:57:05.641Z,51.65
2023-04-08T15:59:33.984Z,54.85
2023-04-08T16:02:02.320Z,54.17
2023-04-08T16:04:30.761Z,53.00
2023-04-08T16:06:59.237Z,55.72
2023-04-08T16:09:27.945Z,54.85
2023-04-08T16:11:58.307Z,55.67
2023-04-08T16:14:26.792Z,54.80
2023-04-08T16:16:55.464Z,58.35
2023-04-08T16:19:23.741Z,55.07
2023-04-08T16:21:52.389Z,59.70
2023-04-08T16:24:21.610Z,60.90
2023-04-08T16:26:50.175Z,55.87
2023-04-08T16:29:20.231Z,55.77
2023-04-08T16:31:48.790Z,56.23
2023-04-08T16:34:18.554Z,51.60
2023-04-08T16:36:47.756Z,51.87
2023-04-08T16:39:16.599Z,50.83
2023-04-08T16:41:45.264Z,49.03
2023-04-08T16:44:13.870Z,50.63
2023-04-08T16:46:44.498Z,50.63
2023-04-08T16:49:15.022Z,49.97
2023-04-08T16:51:44.510Z,46.50
2023-04-08T16:54:12.968Z,48.87
2023-04-08T16:56:45.598Z,49.80
2023-04-08T16:59:14.782Z,51.10
2023-04-08T17:01:44.473Z,52.70
2023-04-08T17:04:12.920Z,51.20
2023-04-08T17:06:42.182Z,50.57
2023-04-08T17:09:10.426Z,51.60
2023-04-08T17:11:40.155Z,48.63
2023-04-08T17:14:08.653Z,49.83
2023-04-08T17:16:37.086Z,48.60
2023-04-08T17:19:06.906Z,46.40
2023-04-08T17:21:35.566Z,45.90
2023-04-08T17:24:03.766Z,50.33
2023-04-08T17:26:33.527Z,48.93
2023-04-08T17:29:02.008Z,49.40
2023-04-08T17:31:30.851Z,49.17
2023-04-08T17:33:59.094Z,48.40
2023-04-08T17:36:30.558Z,50.57
2023-04-08T17:38:59.196Z,48.67
2023-04-08T17:41:39.091Z,51.33
2023-04-08T17:44:08.439Z,52.33
2023-04-08T17:46:37.293Z,54.23
2023-04-08T17:49:05.690Z,52.43
2023-04-08T17:51:36.088Z,53.00
2023-04-08T17:54:05.187Z,56.03
2023-04-08T17:56:34.493Z,55.33
2023-04-08T17:59:02.911Z,55.63
2023-04-08T18:01:31.377Z,59.57
2023-04-08T18:03:59.937Z,59.37
2023-04-08T18:06:28.720Z,57.77
2023-04-08T18:08:58.470Z,59.13
2023-04-08T18:11:27.850Z,58.50
2023-04-08T18:13:56.691Z,61.53
2023-04-08T18:16:25.228Z,63.90
2023-04-08T18:18:53.535Z,62.43
2023-04-08T18:21:22.796Z,67.47
2023-04-08T18:23:51.996Z,65.53
2023-04-08T18:26:22.519Z,67.13
2023-04-08T18:28:51.356Z,67.60
2023-04-08T18:31:20.110Z,64.27
2023-04-08T18:33:48.824Z,65.77
2023-04-08T18:36:17.960Z,65.27
2023-04-08T18:38:46.526Z,65.53
2023-04-08T18:41:15.259Z,68.10
2023-04-08T18:43:44.920Z,80.73
2023-04-08T18:46:13.819Z,83.47
2023-04-08T18:48:42.160Z,97.53
2023-04-08T18:51:11.049Z,87.37
2023-04-08T18:53:40.153Z,97.47
2023-04-08T18:56:16.628Z,89.90
2023-04-08T18:58:47.122Z,92.00
2023-04-08T19:01:16.276Z,90.10
2023-04-08T19:03:45.350Z,89.20
2023-04-08T19:06:14.549Z,93.33
2023-04-08T19:08:43.000Z,91.90
2023-04-08T19:11:11.298Z,87.77
2023-04-08T19:13:39.925Z,95.47
2023-04-08T19:16:11.081Z,84.43
2023-04-08T19:18:39.387Z,87.60
2023-04-08T19:21:07.705Z,84.33
2023-04-08T19:23:36.082Z,88.87
2023-04-08T19:26:06.584Z,85.53
2023-04-08T19:28:35.579Z,78.53
2023-04-08T19:31:04.124Z,65.63
2023-04-08T19:33:34.170Z,68.13
2023-04-08T19:36:03.030Z,68.90
2023-04-08T19:38:32.081Z,60.03
2023-04-08T19:41:02.433Z,59.97
2023-04-08T19:43:32.079Z,51.83
2023-04-08T19:46:00.647Z,50.20
2023-04-08T19:48:29.758Z,51.83
2023-04-08T19:51:05.508Z,54.80
2023-04-08T19:53:33.864Z,62.20
2023-04-08T19:56:04.139Z,56.13
2023-04-08T19:58:32.411Z,58.37
2023-04-08T20:01:03.766Z,57.43
2023-04-08T20:03:32.476Z,62.63
2023-04-08T20:06:03.953Z,61.13
2023-04-08T20:08:34.729Z,67.77
2023-04-08T20:11:04.834Z,66.37
2023-04-08T20:13:33.451Z,63.50
2023-04-08T20:16:03.088Z,70.60
2023-04-08T20:18:32.322Z,70.30
2023-04-08T20:21:03.201Z,67.43
2023-04-08T20:23:34.080Z,67.10
2023-04-08T20:26:05.288Z,70.17
2023-04-08T20:28:34.019Z,71.00
2023-04-08T20:31:03.438Z,66.00
2023-04-08T20:33:32.082Z,67.47
2023-04-08T20:36:02.647Z,65.07
2023-04-08T20:38:32.097Z,66.40
2023-04-08T20:41:01.431Z,57.27
2023-04-08T20:43:30.630Z,59.47
2023-04-08T20:45:59.253Z,57.23
2023-04-08T20:48:36.352Z,58.50
2023-04-08T20:51:06.642Z,60.23
2023-04-08T20:53:35.560Z,63.93
2023-04-08T20:56:05.489Z,68.07
2023-04-08T20:58:34.284Z,62.30
2023-04-08T21:01:02.662Z,65.80
2023-04-08T21:03:31.440Z,66.50
2023-04-08T21:06:00.694Z,65.83
2023-04-08T21:08:30.709Z,65.37
2023-04-08T21:10:59.045Z,64.67
2023-04-08T21:13:27.923Z,70.17
2023-04-08T21:15:56.718Z,71.50
2023-04-08T21:18:27.479Z,72.17
2023-04-08T21:20:56.376Z,67.17
2023-04-08T21:23:25.391Z,69.67
2023-04-08T21:25:55.304Z,72.60
2023-04-08T21:28:23.882Z,75.20
2023-04-08T21:30:52.684Z,68.00
2023-04-08T21:33:21.517Z,66.27
2023-04-08T21:35:50.478Z,66.53
2023-04-08T21:38:18.810Z,67.20
2023-04-08T21:40:47.326Z,66.87
2023-04-08T21:43:17.395Z,69.30
2023-04-08T21:45:45.967Z,66.37
2023-04-08T21:48:14.472Z,69.83
2023-04-08T21:50:45.768Z,75.67
2023-04-08T21:53:14.400Z,85.90
2023-04-08T21:55:42.746Z,72.67
2023-04-08T21:58:12.378Z,83.37
2023-04-08T22:00:42.221Z,85.93
2023-04-08T22:03:10.660Z,92.13
2023-04-08T22:05:41.828Z,95.73
2023-04-08T22:08:12.872Z,98.17
2023-04-08T22:10:41.264Z,100.47
2023-04-08T22:13:10.173Z,93.73
2023-04-08T22:15:38.611Z,103.73
2023-04-08T22:18:08.411Z,96.70
2023-04-08T22:20:39.941Z,93.37
2023-04-08T22:23:09.160Z,88.00
2023-04-08T22:25:37.448Z,92.53
2023-04-08T22:28:06.210Z,91.43
2023-04-08T22:30:34.546Z,85.43
2023-04-08T22:33:03.327Z,91.70
2023-04-08T22:35:33.026Z,91.37
2023-04-08T22:38:01.544Z,86.90
2023-04-08T22:40:30.056Z,86.57
2023-04-08T22:42:58.541Z,90.10
2023-04-08T22:45:28.964Z,90.47
2023-04-08T22:48:00.481Z,82.60
2023-04-08T22:50:28.882Z,86.93
2023-04-08T22:52:58.795Z,80.40
2023-04-08T22:55:27.889Z,77.07
2023-04-08T22:57:56.827Z,74.93
2023-04-08T23:00:25.531Z,68.97
2023-04-08T23:02:53.888Z,66.90
2023-04-08T23:05:23.119Z,70.47
2023-04-08T23:07:51.549Z,67.97
2023-04-08T23:10:21.725Z,75.57
2023-04-08T23:12:50.889Z,75.57
2023-04-08T23:15:19.585Z,70.40
2023-04-08T23:17:48.042Z,68.50
2023-04-08T23:20:16.674Z,73.47
2023-04-08T23:22:45.172Z,72.50
2023-04-08T23:25:13.668Z,78.10
2023-04-08T23:27:43.666Z,69.33
2023-04-08T23:30:12.998Z,68.43
2023-04-08T23:32:41.442Z,72.90
2023-04-08T23:35:10.881Z,71.63
2023-04-08T23:37:39.750Z,68.77
2023-04-08T23:40:10.341Z,68.40
2023-04-08T23:42:38.676Z,67.90
2023-04-08T23:45:10.532Z,62.70
2023-04-08T23:47:39.074Z,52.50
2023-04-08T23:50:10.572Z,48.03
2023-04-08T23:52:41.466Z,47.83
2023-04-08T23:55:11.391Z,40.70
2023-04-08T23:57:43.520Z,40.03
